Time,TemperatureF,DewpointF,PressureIn,WindDirection,WindDirectionDegrees,WindSpeedMPH,WindSpeedGustMPH,Humidity,HourlyPrecipIn,Conditions,Clouds,dailyrainin,SoftwareType,DateUTC
2013-04-29 00:06:00,53.0,49.0,30.24,SSE,165,3.0,9.0,86,0.00,,,0.00,weatherlink.com 1.10,2013-04-29 04:06:00,
2013-04-29 00:21:00,53.0,49.0,30.24,SSE,165,5.0,8.0,86,0.00,,,0.00,weatherlink.com 1.10,2013-04-29 04:21:00,
2013-04-29 00:36:00,52.9,49.0,30.24,SSE,165,4.0,11.0,87,0.00,,,0.00,weatherlink.com 1.10,2013-04-29 04:36:00,
2013-04-29 00:51:00,52.7,49.0,30.23,SSE,161,4.0,10.0,87,0.00,,,0.00,weatherlink.com 1.10,2013-04-29 04:51:00,
2013-04-29 01:06:00,52.7,49.0,30.23,SSE,161,9.0,11.0,88,0.00,,,0.00,weatherlink.com 1.10,2013-04-29 05:06:00,
2013-04-29 01:21:00,53.1,49.0,30.23,South,175,8.0,12.0,87,0.00,,,0.00,weatherlink.com 1.10,2013-04-29 05:21:00,
2013-04-29 01:36:00,53.1,49.0,30.22,SSE,167,7.0,11.0,87,0.00,,,0.00,weatherlink.com 1.10,2013-04-29 05:36:00,
2013-04-29 01:51:00,53.0,49.0,30.22,SSE,167,7.0,9.0,87,0.00,,,0.00,weatherlink.com 1.10,2013-04-29 05:51:00,
2013-04-29 02:06:00,52.8,49.0,30.21,SSE,163,5.0,10.0,87,0.00,,,0.00,weatherlink.com 1.10,2013-04-29 06:06:00,
2013-04-29 02:21:00,52.8,49.0,30.21,SSE,159,5.0,11.0,87,0.00,,,0.00,weatherlink.com 1.10,2013-04-29 06:21:00,
2013-04-29 02:36:00,52.7,49.0,30.21,SSE,153,6.0,12.0,87,0.00,,,0.00,weatherlink.com 1.10,2013-04-29 06:36:00,
2013-04-29 02:51:00,52.7,49.0,30.21,SSE,149,5.0,12.0,87,0.00,,,0.00,weatherlink.com 1.10,2013-04-29 06:51:00,
2013-04-29 03:06:00,52.7,49.0,30.21,SE,142,4.0,12.0,88,0.00,,,0.00,weatherlink.com 1.10,2013-04-29 07:06:00,
2013-04-29 03:21:00,52.7,49.0,30.20,SE,136,5.0,13.0,87,0.00,,,0.00,weatherlink.com 1.10,2013-04-29 07:21:00,
2013-04-29 03:36:00,52.8,49.0,30.20,SE,139,5.0,13.0,87,0.00,,,0.00,weatherlink.com 1.10,2013-04-29 07:36:00,
2013-04-29 03:51:00,52.9,49.0,30.20,SE,138,6.0,13.0,86,0.00,,,0.00,weatherlink.com 1.10,2013-04-29 07:51:00,
2013-04-29 04:06:00,53.8,49.0,30.20,SE,135,9.0,20.0,83,0.00,,,0.00,weatherlink.com 1.10,2013-04-29 08:06:00,
2013-04-29 04:21:00,53.6,49.0,30.20,SE,141,16.0,21.0,83,0.01,,,0.01,weatherlink.com 1.10,2013-04-29 08:21:00,
2013-04-29 04:36:00,53.2,49.0,30.20,SE,130,10.0,17.0,84,0.01,,,0.01,weatherlink.com 1.10,2013-04-29 08:36:00,
2013-04-29 04:51:00,53.3,49.0,30.21,SSE,164,7.0,17.0,85,0.01,,,0.01,weatherlink.com 1.10,2013-04-29 08:51:00,
2013-04-29 05:06:00,53.1,49.0,30.20,SSE,163,9.0,10.0,85,0.01,,,0.01,weatherlink.com 1.10,2013-04-29 09:06:00,
2013-04-29 05:21:00,53.0,49.0,30.20,SSE,160,9.0,11.0,85,0.00,,,0.01,weatherlink.com 1.10,2013-04-29 09:21:00,
2013-04-29 05:36:00,52.9,49.0,30.20,SSE,151,4.0,12.0,85,0.00,,,0.00,weatherlink.com 1.10,2013-04-29 09:36:00,
2013-04-29 05:51:00,52.6,49.0,30.20,ESE,117,13.0,17.0,87,0.00,,,0.00,weatherlink.com 1.10,2013-04-29 09:51:00,
2013-04-29 06:06:00,52.4,49.0,30.21,ESE,121,10.0,17.0,87,0.01,,,0.01,weatherlink.com 1.10,2013-04-29 10:06:00,
2013-04-29 06:21:00,52.1,49.0,30.21,ESE,121,11.0,14.0,88,0.02,,,0.02,weatherlink.com 1.10,2013-04-29 10:21:00,
2013-04-29 06:36:00,51.9,49.0,30.22,ESE,122,10.0,15.0,88,0.02,,,0.02,weatherlink.com 1.10,2013-04-29 10:36:00,
2013-04-29 06:51:00,51.8,49.0,30.22,ESE,121,7.0,14.0,89,0.03,,,0.03,weatherlink.com 1.10,2013-04-29 10:51:00,
2013-04-29 07:06:00,51.8,49.0,30.23,ESE,119,8.0,12.0,89,0.03,,,0.04,weatherlink.com 1.10,2013-04-29 11:06:00,
2013-04-29 07:21:00,51.8,49.0,30.23,ESE,119,4.0,13.0,90,0.03,,,0.05,weatherlink.com 1.10,2013-04-29 11:21:00,
2013-04-29 07:36:00,51.7,49.0,30.23,ESE,111,15.0,17.0,90,0.03,,,0.05,weatherlink.com 1.10,2013-04-29 11:36:00,
2013-04-29 07:51:00,51.7,49.0,30.23,SE,126,8.0,15.0,90,0.02,,,0.05,weatherlink.com 1.10,2013-04-29 11:51:00,
2013-04-29 08:06:00,51.8,49.0,30.23,ESE,119,7.0,15.0,90,0.01,,,0.05,weatherlink.com 1.10,2013-04-29 12:06:00,
2013-04-29 08:21:00,51.8,49.0,30.23,ESE,121,10.0,14.0,90,0.01,,,0.06,weatherlink.com 1.10,2013-04-29 12:21:00,
2013-04-29 08:36:00,51.8,49.0,30.23,ESE,117,8.0,12.0,90,0.01,,,0.06,weatherlink.com 1.10,2013-04-29 12:36:00,
2013-04-29 08:51:00,51.7,49.0,30.23,ESE,119,9.0,11.0,90,0.01,,,0.06,weatherlink.com 1.10,2013-04-29 12:51:00,
2013-04-29 09:06:00,51.5,49.0,30.23,ESE,119,3.0,12.0,90,0.01,,,0.07,weatherlink.com 1.10,2013-04-29 13:06:00,
2013-04-29 09:21:00,51.5,49.0,30.23,ESE,119,5.0,10.0,91,0.01,,,0.07,weatherlink.com 1.10,2013-04-29 13:21:00,
2013-04-29 09:36:00,51.5,49.0,30.23,ESE,119,7.0,10.0,91,0.02,,,0.08,weatherlink.com 1.10,2013-04-29 13:36:00,
2013-04-29 09:51:00,51.6,49.0,30.22,ESE,120,10.0,12.0,91,0.02,,,0.08,weatherlink.com 1.10,2013-04-29 13:51:00,
2013-04-29 10:06:00,51.7,49.0,30.23,ESE,119,9.0,12.0,91,0.02,,,0.09,weatherlink.com 1.10,2013-04-29 14:06:00,
2013-04-29 10:21:00,51.7,49.0,30.23,ESE,119,8.0,13.0,91,0.03,,,0.10,weatherlink.com 1.10,2013-04-29 14:21:00,
2013-04-29 10:36:00,51.9,49.0,30.23,ESE,122,5.0,12.0,91,0.03,,,0.11,weatherlink.com 1.10,2013-04-29 14:36:00,
2013-04-29 10:51:00,51.9,49.0,30.22,ESE,123,10.0,11.0,91,0.04,,,0.12,weatherlink.com 1.10,2013-04-29 14:51:00,
2013-04-29 11:06:00,51.8,49.0,30.23,ESE,121,7.0,13.0,91,0.04,,,0.13,weatherlink.com 1.10,2013-04-29 15:06:00,
2013-04-29 11:21:00,51.8,50.0,30.22,ESE,119,9.0,12.0,92,0.04,,,0.14,weatherlink.com 1.10,2013-04-29 15:21:00,
2013-04-29 11:36:00,51.8,50.0,30.22,SE,134,6.0,14.0,92,0.05,,,0.16,weatherlink.com 1.10,2013-04-29 15:36:00,
2013-04-29 11:51:00,52.1,50.0,30.22,SE,138,8.0,13.0,92,0.05,,,0.17,weatherlink.com 1.10,2013-04-29 15:51:00,
2013-04-29 12:06:00,52.1,50.0,30.22,SE,136,6.0,10.0,91,0.04,,,0.17,weatherlink.com 1.10,2013-04-29 16:06:00,
2013-04-29 12:21:00,52.2,50.0,30.21,SE,132,8.0,10.0,91,0.03,,,0.17,weatherlink.com 1.10,2013-04-29 16:21:00,
2013-04-29 12:36:00,52.2,50.0,30.21,SE,136,11.0,14.0,91,0.01,,,0.17,weatherlink.com 1.10,2013-04-29 16:36:00,
2013-04-29 12:51:00,52.5,49.0,30.21,SE,132,10.0,21.0,89,0.00,,,0.17,weatherlink.com 1.10,2013-04-29 16:51:00,
2013-04-29 13:06:00,53.0,49.0,30.21,SE,138,4.0,16.0,87,0.00,,,0.17,weatherlink.com 1.10,2013-04-29 17:06:00,
2013-04-29 13:22:00,52.7,49.0,30.20,ESE,119,5.0,16.0,88,0.00,,,0.17,weatherlink.com 1.10,2013-04-29 17:22:00,
2013-04-29 13:37:00,52.7,50.0,30.20,ESE,116,8.0,13.0,89,0.00,,,0.17,weatherlink.com 1.10,2013-04-29 17:37:00,
2013-04-29 13:52:00,52.8,49.0,30.19,SE,126,5.0,12.0,88,0.00,,,0.17,weatherlink.com 1.10,2013-04-29 17:52:00,
2013-04-29 14:07:00,53.0,49.0,30.19,ESE,117,11.0,15.0,87,0.00,,,0.17,weatherlink.com 1.10,2013-04-29 18:07:00,
2013-04-29 14:22:00,52.6,49.0,30.19,ESE,119,9.0,12.0,88,0.00,,,0.17,weatherlink.com 1.10,2013-04-29 18:22:00,
2013-04-29 14:37:00,52.3,49.0,30.20,SE,140,8.0,12.0,89,0.00,,,0.17,weatherlink.com 1.10,2013-04-29 18:37:00,
2013-04-29 14:52:00,52.0,49.0,30.19,SE,139,4.0,9.0,90,0.00,,,0.17,weatherlink.com 1.10,2013-04-29 18:52:00,
2013-04-29 15:07:00,51.8,49.0,30.18,ESE,119,8.0,12.0,90,0.00,,,0.17,weatherlink.com 1.10,2013-04-29 19:07:00,
2013-04-29 15:22:00,51.9,49.0,30.18,ESE,115,12.0,14.0,91,0.00,,,0.17,weatherlink.com 1.10,2013-04-29 19:22:00,
2013-04-29 15:37:00,51.9,49.0,30.17,ESE,120,10.0,16.0,91,0.00,,,0.17,weatherlink.com 1.10,2013-04-29 19:37:00,
2013-04-29 15:52:00,51.9,49.0,30.17,ESE,123,11.0,13.0,91,0.00,,,0.17,weatherlink.com 1.10,2013-04-29 19:52:00,
2013-04-29 16:07:00,52.0,50.0,30.17,ESE,120,4.0,12.0,91,0.00,,,0.17,weatherlink.com 1.10,2013-04-29 20:07:00,
2013-04-29 16:22:00,52.1,50.0,30.16,SE,136,5.0,15.0,91,0.00,,,0.17,weatherlink.com 1.10,2013-04-29 20:22:00,
2013-04-29 16:37:00,52.2,50.0,30.17,SE,128,7.0,13.0,91,0.00,,,0.17,weatherlink.com 1.10,2013-04-29 20:37:00,
2013-04-29 16:52:00,52.1,50.0,30.17,SE,140,5.0,12.0,91,0.00,,,0.17,weatherlink.com 1.10,2013-04-29 20:52:00,
2013-04-29 17:07:00,52.0,50.0,30.17,SE,140,11.0,14.0,91,0.01,,,0.18,weatherlink.com 1.10,2013-04-29 21:07:00,
2013-04-29 17:22:00,52.1,50.0,30.17,SE,142,5.0,13.0,91,0.01,,,0.18,weatherlink.com 1.10,2013-04-29 21:22:00,
2013-04-29 17:37:00,52.2,50.0,30.17,SE,139,4.0,11.0,91,0.01,,,0.18,weatherlink.com 1.10,2013-04-29 21:37:00,
2013-04-29 17:52:00,52.4,50.0,30.17,SE,143,11.0,15.0,91,0.01,,,0.18,weatherlink.com 1.10,2013-04-29 21:52:00,
2013-04-29 18:07:00,52.6,50.0,30.17,SE,139,14.0,17.0,91,0.00,,,0.18,weatherlink.com 1.10,2013-04-29 22:07:00,
2013-04-29 18:22:00,52.4,50.0,30.17,SE,142,11.0,15.0,90,0.00,,,0.18,weatherlink.com 1.10,2013-04-29 22:22:00,
2013-04-29 18:37:00,52.2,50.0,30.18,SE,142,5.0,13.0,91,0.00,,,0.18,weatherlink.com 1.10,2013-04-29 22:37:00,
2013-04-29 18:52:00,51.9,49.0,30.18,SE,142,7.0,10.0,91,0.01,,,0.19,weatherlink.com 1.10,2013-04-29 22:52:00,
2013-04-29 19:07:00,51.9,49.0,30.18,SE,142,5.0,10.0,91,0.01,,,0.19,weatherlink.com 1.10,2013-04-29 23:07:00,
2013-04-29 19:37:00,51.8,50.0,30.18,SE,140,6.0,12.0,92,0.01,,,0.19,weatherlink.com 1.10,2013-04-29 23:37:00,
2013-04-29 19:52:00,51.7,50.0,30.18,SE,138,6.0,9.0,92,0.00,,,0.19,weatherlink.com 1.10,2013-04-29 23:52:00,
2013-04-29 20:07:00,51.5,49.0,30.19,SE,138,3.0,6.0,92,0.00,,,0.19,weatherlink.com 1.10,2013-04-30 00:07:00,
2013-04-29 20:22:00,51.3,49.0,30.20,SE,138,3.0,6.0,92,0.00,,,0.19,weatherlink.com 1.10,2013-04-30 00:22:00,
2013-04-29 20:37:00,51.2,49.0,30.20,SE,138,3.0,6.0,92,0.00,,,0.19,weatherlink.com 1.10,2013-04-30 00:37:00,
2013-04-29 20:52:00,51.1,49.0,30.20,SE,138,6.0,8.0,93,0.00,,,0.19,weatherlink.com 1.10,2013-04-30 00:52:00,
2013-04-29 21:07:00,51.1,49.0,30.20,ESE,117,11.0,15.0,93,0.01,,,0.20,weatherlink.com 1.10,2013-04-30 01:07:00,
2013-04-29 21:22:00,51.2,49.0,30.20,ESE,117,12.0,16.0,93,0.01,,,0.20,weatherlink.com 1.10,2013-04-30 01:22:00,
2013-04-29 21:37:00,51.1,49.0,30.21,ESE,113,13.0,18.0,93,0.01,,,0.20,weatherlink.com 1.10,2013-04-30 01:37:00,
2013-04-29 21:52:00,51.1,49.0,30.21,ESE,120,14.0,18.0,93,0.01,,,0.20,weatherlink.com 1.10,2013-04-30 01:52:00,
2013-04-29 22:07:00,51.0,49.0,30.21,ESE,118,15.0,17.0,93,0.00,,,0.20,weatherlink.com 1.10,2013-04-30 02:07:00,
2013-04-29 22:22:00,50.9,49.0,30.21,ESE,121,15.0,16.0,93,0.00,,,0.20,weatherlink.com 1.10,2013-04-30 02:22:00,
2013-04-29 22:37:00,50.7,49.0,30.20,ESE,116,11.0,17.0,93,0.00,,,0.20,weatherlink.com 1.10,2013-04-30 02:37:00,
2013-04-29 22:52:00,50.4,49.0,30.20,ESE,117,15.0,18.0,93,0.00,,,0.20,weatherlink.com 1.10,2013-04-30 02:52:00,
2013-04-29 23:07:00,50.3,48.0,30.20,ESE,122,14.0,19.0,93,0.00,,,0.20,weatherlink.com 1.10,2013-04-30 03:07:00,
2013-04-29 23:22:00,50.2,48.0,30.20,ESE,112,12.0,18.0,93,0.01,,,0.21,weatherlink.com 1.10,2013-04-30 03:22:00,
2013-04-29 23:37:00,50.2,48.0,30.20,ESE,112,9.0,17.0,93,0.01,,,0.21,weatherlink.com 1.10,2013-04-30 03:37:00,
2013-04-29 23:52:00,50.4,49.0,30.20,ESE,115,12.0,17.0,93,0.01,,,0.21,weatherlink.com 1.10,2013-04-30 03:52:00,